Gardnerville, NV (89460)

8:55 AM PST on November 21, 2014 (GMT -0800)
MesoWest | Change Station
CLOSE
Current Station
Personal Weather Station
Location: Gardnerville, NV
Elevation: 4795 ft
Nearby Weather Stations
Active Advisory: High Wind Watch

Elev 4795 ft 38.89 °N, 119.72 °W | Updated 5 days ago

Partly Cloudy
Partly Cloudy
41 °F
Feels Like 41 °F
N
4
Wind Variable Wind from SE
Gusts 7 mph

Today
High -- | Low -- °F
--% Chance of Precip.
Yesterday
High -- | Low -- °F
Precip. -- in
6:48 AM 4:41 PM
Waning Crescent, 1% visible
Pressure 30.07 in
Visibility 6.0 miles
Clouds Clear
Dew Point 23 °F
Humidity 51%
Rainfall -999.00 in
Snow Depth Not available.
UV 1 out of 12
Pollen .30 out of 12
Air Quality Not available.
Flu Activity Not available.
METAR KTVL 211553Z AUTO 00000KT 6SM HZ CLR M03/M06 A3007 RMK AO2 SLP182 I1000 T10281056

More Conditions Fewer Conditions

Pressure 30.07 in
Visibility 6.0 miles
Clouds Clear
Dew Point 23 °F
Humidity 51%
Rainfall -999.00 in
Snow Depth Not available.
UV 1 out of 12
Pollen .30 out of 12
Air Quality Not available.
Flu Activity Not available.
METAR KTVL 211553Z AUTO 00000KT 6SM HZ CLR M03/M06 A3007 RMK AO2 SLP182 I1000 T10281056

More Conditions Fewer Conditions

10-Day Weather Forecast

Almanac

Astronomy

Nov. 21, 2014 Rise Set
Actual Time
Civil Twilight
Nautical Twilight
Astronomical Twilight
Moon
Length of Visible Light
Length of Day
Tomorrow will be .
, % of the Moon is Illuminated

Today's Extremes

State Highs State Lows

Community

WunderPhotos

Upload Photos

1,772,687 photos uploaded!

WunderBlogs® & News

Nearby

Air Quality

  Air Quality AQ Index Pollutant
Not available.

Snow Depth

Station Depth Elevation

Earthquake Activity

City Distance Mag. Time & Date
Minimum magnitude displayed is 2.5.

Coastal Water Temperatures

Place Temperature

Nearby Weather Stations